Time;durP1;ratioP1;P1;durP2;ratioP2;P2;SDS_P1;SDS_P2;PMS_P1;PMS_P2;Temp;Humidity;BMP_temperature;BMP_pressure;BME280_temperature;BME280_humidity;BME280_pressure;Samples;Min_cycle;Max_cycle;Signal;HPM_P1;HPM_P2
2022/06/05 18:12:18;;;;;;;10.47;9.57;;;22.20;99.90;;;;;;5097440;27;21138;-96
2022/06/05 18:14:49;;;;;;;11.03;10.17;;;22.20;99.90;;;;;;5100848;28;20191;-92
2022/06/05 18:17:28;;;;;;;10.97;9.87;;;22.30;99.90;;;;;;5100443;28;20194;-92
2022/06/05 18:19:56;;;;;;;11.30;10.30;;;22.30;99.90;;;;;;5100600;28;20174;-92
2022/06/05 18:22:48;;;;;;;10.90;9.87;;;22.40;99.90;;;;;;5104695;28;20299;-93
2022/06/05 18:25:41;;;;;;;10.80;9.73;;;22.60;99.90;;;;;;5109833;28;20175;-89
2022/06/05 18:28:39;;;;;;;10.43;9.40;;;22.60;99.90;;;;;;5106425;28;20170;-92
2022/06/05 18:31:12;;;;;;;10.07;9.27;;;22.70;99.90;;;;;;5098216;28;20218;-92
2022/06/05 18:34:00;;;;;;;10.37;9.37;;;22.70;99.90;;;;;;5094124;28;20179;-88
2022/06/05 18:39:48;;;;;;;10.33;9.43;;;22.80;99.90;;;;;;5095890;28;20157;-89
2022/06/05 18:42:19;;;;;;;9.83;8.90;;;22.80;99.90;;;;;;5095355;28;20158;-91
2022/06/05 18:44:46;;;;;;;9.97;9.07;;;22.80;99.90;;;;;;5095414;28;20626;-90
2022/06/05 18:47:30;;;;;;;10.37;9.33;;;22.80;99.90;;;;;;5090703;28;20167;-87
2022/06/05 18:49:56;;;;;;;10.02;9.10;;;22.80;99.90;;;;;;5091255;28;20163;-86
2022/06/05 18:52:27;;;;;;;9.83;9.13;;;22.80;99.90;;;;;;5090954;28;20273;-86
2022/06/05 18:55:00;;;;;;;9.33;8.43;;;22.90;99.90;;;;;;5085385;28;20171;-85
2022/06/05 18:57:33;;;;;;;9.60;8.63;;;22.90;99.90;;;;;;5091398;28;20186;-86
2022/06/05 19:00:16;;;;;;;9.60;8.70;;;22.80;99.90;;;;;;5104446;28;20193;-90
2022/06/05 19:02:49;;;;;;;9.30;8.60;;;22.80;99.90;;;;;;5108999;28;20178;-90
2022/06/05 19:05:36;;;;;;;9.70;8.90;;;22.70;99.90;;;;;;5106429;28;20174;-95
2022/06/05 19:08:20;;;;;;;9.43;8.73;;;22.70;99.90;;;;;;5098729;28;20244;-96
2022/06/05 19:10:48;;;;;;;8.77;8.18;;;22.70;99.90;;;;;;5102864;28;20230;-92
2022/06/05 19:13:29;;;;;;;9.43;8.33;;;22.70;99.90;;;;;;5095979;28;20220;-93
2022/06/05 19:15:57;;;;;;;9.90;8.90;;;22.80;99.90;;;;;;5097499;28;20170;-87
2022/06/05 19:18:32;;;;;;;8.43;7.72;;;22.70;99.90;;;;;;5102537;28;20189;-94
2022/06/05 19:21:13;;;;;;;10.83;9.57;;;22.60;99.90;;;;;;5115054;28;20158;-93
2022/06/05 19:23:56;;;;;;;9.80;8.93;;;22.60;99.90;;;;;;5099288;28;20730;-93
2022/06/05 19:26:37;;;;;;;9.40;8.53;;;22.60;99.90;;;;;;5091934;28;20179;-96
2022/06/05 19:29:17;;;;;;;10.25;9.23;;;22.70;99.90;;;;;;5086740;28;20175;-95
2022/06/05 19:32:18;;;;;;;10.40;9.47;;;22.70;99.90;;;;;;5086195;28;20258;-93
2022/06/05 19:34:56;;;;;;;9.67;8.83;;;22.70;99.90;;;;;;5093247;28;20190;-92
2022/06/05 19:40:29;;;;;;;11.10;8.70;;;22.60;99.90;;;;;;5090297;28;20163;-91
2022/06/05 19:43:05;;;;;;;9.70;8.87;;;22.60;99.90;;;;;;5097291;28;20167;-89
2022/06/05 19:45:45;;;;;;;9.00;8.30;;;22.60;99.90;;;;;;5100499;28;20238;-86
2022/06/05 19:48:31;;;;;;;10.30;9.30;;;22.60;99.90;;;;;;5098205;28;20163;-95
2022/06/05 19:51:32;;;;;;;9.53;8.80;;;22.60;99.90;;;;;;5089528;28;20218;-91
2022/06/05 19:53:59;;;;;;;9.17;8.30;;;22.60;99.90;;;;;;5090368;28;20170;-94
2022/06/05 19:56:40;;;;;;;10.17;9.20;;;22.60;99.90;;;;;;5090840;28;20175;-88
2022/06/05 19:59:19;;;;;;;10.97;8.97;;;22.60;99.90;;;;;;5088218;28;20167;-90
2022/06/05 20:01:53;;;;;;;10.97;8.67;;;22.50;99.90;;;;;;5080150;28;20198;-93
2022/06/05 20:04:51;;;;;;;9.80;8.90;;;22.50;99.90;;;;;;5083633;28;20212;-92
2022/06/05 20:07:25;;;;;;;10.37;9.30;;;22.50;99.90;;;;;;5088864;28;20187;-87
2022/06/05 20:10:28;;;;;;;11.00;9.90;;;22.50;99.90;;;;;;5085274;28;20163;-95
2022/06/05 20:13:49;;;;;;;10.77;9.73;;;22.60;99.90;;;;;;5080372;28;20171;-88
2022/06/05 20:16:29;;;;;;;9.80;8.90;;;22.60;99.90;;;;;;5069676;28;20187;-90
2022/06/05 20:19:03;;;;;;;10.45;9.40;;;22.60;99.90;;;;;;5038375;23;20236;-87
2022/06/05 20:21:33;;;;;;;11.83;9.63;;;22.50;99.90;;;;;;5007494;28;20197;-87
2022/06/05 20:24:03;;;;;;;10.40;9.60;;;22.50;99.90;;;;;;5002078;28;20189;-91
2022/06/05 20:26:34;;;;;;;10.10;9.00;;;22.50;99.90;;;;;;4998097;28;20189;-88
2022/06/05 20:29:19;;;;;;;10.17;9.30;;;22.50;99.90;;;;;;4998101;28;20182;-88
2022/06/05 20:32:00;;;;;;;10.00;9.00;;;22.60;99.90;;;;;;4997790;28;20657;-87
2022/06/05 20:34:40;;;;;;;9.70;8.93;;;22.60;99.90;;;;;;4994509;28;20197;-87
2022/06/05 20:37:25;;;;;;;9.95;9.15;;;22.50;99.90;;;;;;5001696;28;20181;-88
2022/06/05 20:40:14;;;;;;;10.50;9.57;;;22.50;99.90;;;;;;5019156;28;20228;-94
2022/06/05 20:43:00;;;;;;;10.07;9.20;;;22.50;99.90;;;;;;5019917;28;20200;-91
2022/06/05 20:45:48;;;;;;;11.80;10.60;;;22.50;99.90;;;;;;5028193;28;20556;-90
2022/06/05 20:48:33;;;;;;;10.37;9.43;;;22.60;99.90;;;;;;5009694;28;20208;-94
2022/06/05 20:51:04;;;;;;;10.27;9.33;;;22.60;99.90;;;;;;5001232;28;20213;-91
2022/06/05 20:53:53;;;;;;;10.00;9.20;;;22.50;99.90;;;;;;5005495;28;20166;-90
2022/06/05 20:56:33;;;;;;;9.77;8.87;;;22.50;99.90;;;;;;5004645;28;20196;-89
2022/06/05 20:59:07;;;;;;;10.33;9.40;;;22.50;99.90;;;;;;4997691;28;20649;-91
2022/06/05 21:01:51;;;;;;;9.77;8.77;;;22.60;99.90;;;;;;4987774;28;20165;-93
2022/06/05 21:07:19;;;;;;;10.60;9.60;;;22.60;99.90;;;;;;5012731;28;20169;-88
2022/06/05 21:09:51;;;;;;;10.13;9.23;;;22.50;99.90;;;;;;5012641;28;20158;-91
2022/06/05 21:18:01;;;;;;;9.50;8.80;;;22.40;99.90;;;;;;4999548;28;20193;-94
2022/06/05 21:20:32;;;;;;;9.87;9.07;;;22.40;99.90;;;;;;4997382;28;20214;-88
2022/06/05 21:23:00;;;;;;;9.40;8.70;;;22.50;99.90;;;;;;5000868;28;20170;-91
2022/06/05 21:25:29;;;;;;;11.10;10.00;;;22.40;99.90;;;;;;4999710;28;20216;-95
2022/06/05 21:27:56;;;;;;;12.43;10.10;;;22.50;99.90;;;;;;4996331;28;20232;-91
2022/06/05 21:30:33;;;;;;;9.73;6.70;;;22.50;99.90;;;;;;4984148;28;20220;-89
2022/06/05 21:33:09;;;;;;;6.13;5.60;;;22.30;99.90;;;;;;5007896;28;20182;-90
2022/06/05 21:36:02;;;;;;;3.37;2.90;;;22.10;99.90;;;;;;5007630;28;20165;-88
2022/06/05 21:39:03;;;;;;;2.70;2.50;;;21.70;99.90;;;;;;5009118;28;20174;-89
2022/06/05 21:41:45;;;;;;;3.63;1.93;;;21.40;99.90;;;;;;4991676;28;20204;-91
2022/06/05 21:44:30;;;;;;;2.87;1.90;;;21.10;99.90;;;;;;5003519;28;20170;-88
2022/06/05 21:47:22;;;;;;;1.97;1.70;;;20.80;99.90;;;;;;4989291;28;20188;-89
2022/06/05 21:49:51;;;;;;;2.40;1.70;;;20.70;99.90;;;;;;5013179;28;20626;-87
2022/06/05 21:52:36;;;;;;;6.20;1.63;;;20.60;99.90;;;;;;5012465;28;20198;-88
2022/06/05 21:55:09;;;;;;;3.37;1.70;;;20.40;99.90;;;;;;5020985;28;20202;-92
2022/06/05 21:57:45;;;;;;;2.87;1.80;;;20.30;99.90;;;;;;5041041;28;20182;-88
2022/06/05 22:00:33;;;;;;;3.70;1.40;;;20.10;99.90;;;;;;5006955;28;20177;-88
2022/06/05 22:03:09;;;;;;;3.37;1.50;;;19.70;99.90;;;;;;5011591;28;20228;-88
2022/06/05 22:05:35;;;;;;;3.20;1.60;;;19.60;99.90;;;;;;5006319;28;20648;-93
2022/06/05 22:08:01;;;;;;;4.77;1.57;;;19.50;99.90;;;;;;5003753;28;20193;-94
2022/06/05 22:10:27;;;;;;;1.63;1.33;;;19.30;99.90;;;;;;4998179;28;20216;-89
2022/06/05 22:12:53;;;;;;;2.27;1.37;;;19.20;99.90;;;;;;4997766;28;20185;-87
2022/06/05 22:15:19;;;;;;;2.73;1.30;;;19.10;99.90;;;;;;4995646;28;20173;-88
2022/06/05 22:17:46;;;;;;;1.40;1.30;;;19.00;99.90;;;;;;4999176;28;20224;-88
2022/06/05 22:20:13;;;;;;;6.00;1.50;;;19.00;99.90;;;;;;4998087;28;20230;-93
2022/06/05 22:22:41;;;;;;;2.77;1.20;;;19.00;99.90;;;;;;5008817;28;20208;-94
2022/06/05 22:25:08;;;;;;;3.53;1.40;;;19.00;99.90;;;;;;5006755;28;20169;-94
2022/06/05 22:27:46;;;;;;;1.07;0.80;;;19.00;99.90;;;;;;5013674;28;20222;-88
2022/06/05 22:30:27;;;;;;;0.93;0.93;;;19.10;99.90;;;;;;5015470;28;20181;-96
2022/06/05 22:32:53;;;;;;;2.93;1.30;;;19.10;99.90;;;;;;5014236;28;20198;-96
2022/06/05 22:35:25;;;;;;;1.00;1.00;;;19.10;99.90;;;;;;5012156;28;20177;-93
2022/06/05 22:37:53;;;;;;;1.50;0.97;;;19.10;99.90;;;;;;5013512;28;20158;-96
2022/06/05 22:40:41;;;;;;;2.27;1.00;;;19.10;99.90;;;;;;5012233;28;20213;-96
2022/06/05 22:43:06;;;;;;;2.43;1.10;;;19.00;99.90;;;;;;5046160;23;20223;-90
2022/06/05 22:45:33;;;;;;;1.60;1.07;;;19.10;99.90;;;;;;5035714;28;20208;-88
2022/06/05 22:47:59;;;;;;;0.87;0.87;;;19.20;99.90;;;;;;5022772;23;20795;-87
2022/06/05 22:53:02;;;;;;;0.90;0.90;;;19.20;99.90;;;;;;4265788;23;20289;-96
2022/06/05 22:55:30;;;;;;;1.47;1.00;;;19.20;99.90;;;;;;4996435;28;20183;-96
2022/06/05 22:58:00;;;;;;;1.40;1.00;;;19.30;99.90;;;;;;4998099;28;20191;-88
2022/06/05 23:00:32;;;;;;;1.00;1.00;;;19.30;99.90;;;;;;4999499;28;20203;-91
2022/06/05 23:03:07;;;;;;;0.90;0.90;;;19.30;99.90;;;;;;4998789;28;20222;-90
2022/06/05 23:05:41;;;;;;;1.23;1.17;;;19.40;99.90;;;;;;5021203;23;20253;-87
2022/06/05 23:08:08;;;;;;;2.83;1.00;;;19.40;99.90;;;;;;4994351;28;20213;-87
2022/06/05 23:10:33;;;;;;;3.17;1.00;;;19.40;99.90;;;;;;4976176;28;20266;-87
2022/06/05 23:12:59;;;;;;;1.33;0.87;;;19.50;99.90;;;;;;4976125;29;20183;-89
2022/06/05 23:15:32;;;;;;;1.13;1.07;;;19.50;99.90;;;;;;4976847;29;20168;-87
2022/06/05 23:18:03;;;;;;;4.33;1.10;;;19.50;99.90;;;;;;4979277;28;20159;-87
2022/06/05 23:20:32;;;;;;;4.17;1.00;;;19.50;99.90;;;;;;5178754;23;20225;-88
2022/06/05 23:23:05;;;;;;;0.80;0.80;;;19.50;99.90;;;;;;5000829;28;20183;-88
2022/06/05 23:25:32;;;;;;;0.83;0.80;;;19.50;99.90;;;;;;5008675;23;20225;-91
2022/06/05 23:28:03;;;;;;;1.00;0.60;;;19.50;99.90;;;;;;5002463;28;20182;-87
2022/06/05 23:30:52;;;;;;;1.43;1.10;;;19.40;99.90;;;;;;4998380;28;20190;-89
2022/06/05 23:33:20;;;;;;;0.90;0.67;;;19.40;99.90;;;;;;4996474;28;20191;-88
2022/06/05 23:35:46;;;;;;;4.83;1.07;;;19.40;99.90;;;;;;5007727;23;20222;-87
2022/06/05 23:38:17;;;;;;;0.70;0.70;;;19.40;99.90;;;;;;5061336;23;20231;-87
2022/06/05 23:41:07;;;;;;;1.40;0.90;;;19.40;99.90;;;;;;5087460;28;20183;-87
2022/06/05 23:44:03;;;;;;;1.00;1.00;;;19.40;99.90;;;;;;5057836;28;20639;-89
2022/06/05 23:46:30;;;;;;;2.73;1.03;;;19.40;99.90;;;;;;5090447;28;20167;-88
2022/06/05 23:49:06;;;;;;;0.87;0.87;;;19.40;99.90;;;;;;5090609;28;20191;-88
2022/06/05 23:52:08;;;;;;;3.13;0.60;;;19.40;99.90;;;;;;5071485;28;20190;-88
2022/06/05 23:54:40;;;;;;;0.83;0.80;;;19.40;99.90;;;;;;5072945;28;20657;-87
